createdAt,value
2023-08-12T00:03:29.501Z,31.00
2023-08-12T00:18:37.859Z,31.00
2023-08-12T00:33:42.594Z,31.00
2023-08-12T00:48:47.399Z,31.00
2023-08-12T01:03:52.626Z,31.00
2023-08-12T01:18:58.128Z,31.00
2023-08-12T01:34:12.558Z,30.90
2023-08-12T01:49:17.242Z,30.90
2023-08-12T02:04:21.884Z,30.90
2023-08-12T02:19:26.512Z,30.90
2023-08-12T02:34:31.704Z,30.90
2023-08-12T02:49:36.272Z,30.80
2023-08-12T03:04:40.904Z,30.80
2023-08-12T03:19:45.904Z,30.80
2023-08-12T03:34:50.663Z,30.70
2023-08-12T03:49:55.702Z,30.70
2023-08-12T04:05:01.620Z,30.70
2023-08-12T04:20:08.052Z,30.70
2023-08-12T04:35:14.667Z,30.70
2023-08-12T04:50:20.567Z,30.60
2023-08-12T05:05:25.315Z,30.50
2023-08-12T05:20:30.392Z,30.50
2023-08-12T05:35:36.973Z,30.30
2023-08-12T05:50:41.565Z,30.20
2023-08-12T06:05:47.760Z,30.00
2023-08-12T06:20:52.307Z,29.90
2023-08-12T06:35:56.905Z,29.70
2023-08-12T06:51:05.160Z,29.60
2023-08-12T07:06:09.748Z,29.60
2023-08-12T07:21:14.359Z,29.70
2023-08-12T07:36:18.963Z,29.80
2023-08-12T07:51:23.567Z,29.90
2023-08-12T08:06:28.612Z,29.90
2023-08-12T08:21:33.242Z,29.90
2023-08-12T08:36:38.225Z,30.00
2023-08-12T08:51:43.813Z,30.00
2023-08-12T09:06:49.917Z,30.10
2023-08-12T09:21:55.922Z,30.10
2023-08-12T09:37:00.939Z,30.30
2023-08-12T09:52:06.986Z,30.40
2023-08-12T10:07:13.975Z,30.40
2023-08-12T10:22:19.149Z,30.50
2023-08-12T10:37:25.371Z,30.60
2023-08-12T10:52:30.850Z,30.70
2023-08-12T11:07:41.389Z,30.80
2023-08-12T11:22:46.666Z,30.80
2023-08-12T11:37:54.150Z,30.90
2023-08-12T11:52:59.675Z,31.00
2023-08-12T12:08:06.382Z,31.10
2023-08-12T12:23:11.095Z,31.20
2023-08-12T12:38:15.721Z,31.20
2023-08-12T12:53:20.319Z,31.30
2023-08-12T13:08:25.052Z,31.30
2023-08-12T13:23:29.722Z,31.40
2023-08-12T13:38:36.686Z,31.40
2023-08-12T13:53:41.325Z,31.40
2023-08-12T14:08:45.903Z,31.50
2023-08-12T14:23:50.582Z,31.50
2023-08-12T14:38:55.270Z,31.50
2023-08-12T14:53:59.862Z,31.60
2023-08-12T15:09:04.661Z,31.60
2023-08-12T15:24:09.952Z,31.60
2023-08-12T15:39:15.182Z,31.60
2023-08-12T15:54:19.799Z,31.60
2023-08-12T16:09:24.657Z,31.70
2023-08-12T16:24:29.327Z,31.70
2023-08-12T16:39:33.945Z,31.70
2023-08-12T16:54:38.594Z,31.60
2023-08-12T17:09:45.275Z,31.60
2023-08-12T17:24:51.683Z,31.70
2023-08-12T17:39:56.319Z,31.60
2023-08-12T17:55:00.934Z,31.70
2023-08-12T18:10:06.203Z,31.70
2023-08-12T18:25:10.935Z,31.60
2023-08-12T18:40:15.581Z,31.60
2023-08-12T18:55:22.081Z,31.70
2023-08-12T19:10:27.004Z,31.70
2023-08-12T19:25:32.056Z,31.60
2023-08-12T19:40:36.824Z,31.60
2023-08-12T19:55:41.486Z,31.50
2023-08-12T20:10:46.134Z,31.50
2023-08-12T20:25:52.361Z,31.50
2023-08-12T20:40:58.103Z,31.50
2023-08-12T20:56:02.713Z,31.50
2023-08-12T21:11:08.185Z,31.60
2023-08-12T21:26:12.805Z,31.50
2023-08-12T21:41:17.385Z,31.60
2023-08-12T21:56:22.148Z,31.50
2023-08-12T22:11:28.639Z,31.50
2023-08-12T22:26:33.325Z,31.50
2023-08-12T22:41:37.952Z,31.50
2023-08-12T22:56:43.163Z,31.50
2023-08-12T23:11:47.740Z,31.50
2023-08-12T23:26:52.390Z,31.50
2023-08-12T23:41:57.032Z,31.40
2023-08-12T23:57:02.101Z,31.50
